Latest Weather Observations for Norfolk Island

IDN60801

Issued at 6:52 pm EST Wednesday 19 September 2018 (issued every 10 minutes, with the page automatically refreshed every 10 minutes)

About weather observations | Map of weather stations | Latest weather observations for NSW | Other Formats
Station Details ID: 200288 Name: NORFOLK ISLAND AERO Lat: -29.04 Lon: 167.94 Height: 111.73 m
Data from the previous 72 hours. | See also: Recent months at Norfolk Island
Date/Time
EST
Temp
°C
App
Temp
°C
Dew
Point
°C
Rel
Hum
%
Delta-T
°C
Wind Press
QNH
hPa
Press
MSL
hPa
Rain since
9am
mm
Dir  Spd
km/h
Gust
km/h
Spd
kts
Gust
kts
19/06:30pm 15.9 13.8 11.1 73 2.6 S 13 19 7 10 1016.8 1016.6 0.0
19/06:00pm 15.9 12.5 10.7 71 2.8 SSE 19 30 10 16 1016.6 1016.4 0.0
19/05:30pm 16.0 12.5 11.0 72 2.7 S 20 30 11 16 1016.8 1016.6 0.0
19/05:00pm 16.1 13.1 12.1 77 2.2 S 19 32 10 17 1016.8 1016.6 0.0
19/04:30pm 15.9 13.2 10.4 70 2.9 SSW 15 26 8 14 1016.8 1016.6 0.0
19/04:00pm 16.1 12.7 10.4 69 3.0 SSW 19 30 10 16 1016.5 1016.3 0.0
19/03:30pm 16.3 12.8 10.8 70 2.9 S 20 26 11 14 1016.0 1015.8 0.0
19/03:00pm 16.6 13.2 10.5 67 3.3 S 19 28 10 15 1016.2 1016.0 0.0
19/02:30pm 17.1 13.6 10.9 67 3.3 S 20 28 11 15 1016.2 1016.0 0.0
19/02:00pm 16.9 12.8 11.4 70 3.0 SSW 24 33 13 18 1016.2 1016.0 0.0
19/01:30pm 17.2 13.7 11.0 67 3.4 SSW 20 28 11 15 1016.2 1016.0 0.0
19/01:00pm 17.5 13.1 10.4 63 3.8 SSW 24 33 13 18 1016.6 1016.4 0.0
19/12:30pm 18.1 13.7 10.5 61 4.1 SSW 24 35 13 19 1017.0 1016.8 0.0
19/12:00pm 17.1 12.4 10.7 66 3.4 SSW 26 33 14 18 1017.1 1016.9 0.0
19/11:30am 17.5 13.7 11.1 66 3.5 SSW 22 32 12 17 1017.5 1017.3 0.0
19/11:00am 17.4 16.6 11.2 67 3.4 - 6 52 3 28 1017.6 1017.4 0.0
19/10:43am 16.9 13.3 10.5 66 3.4 WSW 20 54 11 29 1017.7 1017.5 0.0
19/10:30am 17.7 14.2 10.8 64 3.7 SSW 20 30 11 16 1017.9 1017.7 0.0
19/10:00am 18.2 14.3 10.8 62 4.0 SSW 22 32 12 17 1018.0 1017.8 0.0
19/09:30am 17.5 13.8 10.1 62 3.9 SSW 20 28 11 15 1018.2 1018.0 0.0
19/09:00am 16.8 12.4 9.0 60 4.0 SSW 22 32 12 17 1018.4 1018.2 0.0
19/08:30am 17.0 13.2 9.7 62 3.8 SSW 20 33 11 18 1018.5 1018.3 0.0
19/08:00am 16.6 12.3 9.3 62 3.8 SSW 22 32 12 17 1018.5 1018.3 0.0
19/07:30am 16.7 12.0 10.5 67 3.3 SSW 26 33 14 18 1018.7 1018.5 0.0
19/07:00am 16.1 12.2 9.3 64 3.5 SSW 20 32 11 17 1018.7 1018.5 0.0
19/06:30am 16.0 12.5 8.7 62 3.7 SSW 17 20 9 11 1018.7 1018.5 0.0
19/06:00am 15.7 12.0 8.0 60 3.9 SSW 17 28 9 15 1018.5 1018.3 0.0
19/05:30am 15.5 12.5 9.4 67 3.2 S 15 20 8 11 1018.1 1017.9 0.0
19/05:00am 15.3 11.9 9.0 66 3.2 S 17 26 9 14 1017.7 1017.5 0.0
19/04:30am 15.1 11.8 7.9 62 3.6 S 15 26 8 14 1017.5 1017.3 0.0
19/04:00am 15.2 10.7 8.4 64 3.4 SSW 22 35 12 19 1017.3 1017.1 0.0
19/03:30am 15.3 10.8 8.5 64 3.5 SSW 22 32 12 17 1017.2 1017.0 0.0
19/03:00am 15.2 11.0 8.2 63 3.5 S 20 30 11 16 1016.9 1016.7 0.0
19/02:30am 15.4 12.1 9.5 68 3.1 S 17 30 9 16 1016.7 1016.5 0.0
19/02:00am 15.0 12.9 11.0 77 2.1 SSW 13 17 7 9 1016.8 1016.6 0.0
19/01:30am 14.8 11.2 10.6 76 2.2 S 20 32 11 17 1017.0 1016.8 0.0
19/01:00am 14.1 12.1 11.4 84 1.4 S 13 17 7 9 1017.1 1016.9 0.0
19/12:30am 15.3 11.3 9.2 67 3.2 S 20 32 11 17 1017.2 1017.0 0.0
19/12:00am 15.1 11.5 10.5 74 2.4 S 20 32 11 17 1017.5 1017.3 0.0
 
Date/Time
EST
Temp
°C
App
Temp
°C
Dew
Point
°C
Rel
Hum
%
Delta-T
°C
Wind Press
QNH
hPa
Press
MSL
hPa
Rain since
9am
mm
Dir  Spd
km/h
Gust
km/h
Spd
kts
Gust
kts
18/11:30pm 15.5 11.4 10.1 70 2.8 S 22 30 12 16 1017.8 1017.6 0.0
18/11:00pm 15.5 11.6 10.7 73 2.6 S 22 32 12 17 1017.8 1017.6 0.0
18/10:30pm 15.4 11.3 11.6 78 2.1 S 24 35 13 19 1017.9 1017.7 0.0
18/10:00pm 15.6 11.1 11.4 76 2.3 S 26 35 14 19 1017.9 1017.7 0.0
18/09:30pm 15.4 11.0 11.8 79 2.0 S 26 37 14 20 1017.9 1017.7 0.0
18/09:00pm 15.4 10.8 12.2 81 1.8 S 28 41 15 22 1018.1 1017.9 0.0
18/08:30pm 15.5 11.2 12.1 80 1.9 S 26 35 14 19 1018.1 1017.9 0.0
18/08:00pm 15.3 11.6 12.8 85 1.4 S 24 33 13 18 1018.0 1017.8 0.0
18/07:30pm 15.6 11.0 12.2 80 1.9 S 28 39 15 21 1017.8 1017.6 0.0
18/07:00pm 15.8 11.4 11.6 76 2.3 S 26 33 14 18 1017.7 1017.5 0.0
18/06:30pm 15.8 11.5 12.0 78 2.1 S 26 35 14 19 1017.6 1017.4 0.0
18/06:00pm 15.9 11.1 11.7 76 2.3 S 28 43 15 23 1017.5 1017.3 0.0
18/05:30pm 16.1 11.1 12.1 77 2.2 S 30 41 16 22 1017.1 1016.9 0.0
18/05:18pm 16.1 11.1 12.1 77 2.2 S 30 48 16 26 1017.0 1016.8 0.0
18/05:00pm 16.0 10.5 11.8 76 2.3 S 32 43 17 23 1016.8 1016.6 0.0
18/04:30pm 16.3 12.5 12.3 77 2.2 S 24 37 13 20 1016.7 1016.5 0.0
18/04:00pm 16.4 12.6 12.4 77 2.2 S 24 35 13 19 1016.5 1016.3 0.0
18/03:30pm 17.1 12.2 12.4 74 2.6 S 30 43 16 23 1016.4 1016.2 0.0
18/03:00pm 17.1 12.2 12.6 75 2.5 S 30 41 16 22 1016.2 1016.0 0.0
18/02:30pm 17.3 13.0 12.2 72 2.8 S 26 39 14 21 1016.1 1015.9 0.0
18/02:00pm 17.9 13.6 11.9 68 3.3 S 26 37 14 20 1016.0 1015.8 0.0
18/01:30pm 18.7 14.2 12.7 68 3.4 S 28 39 15 21 1015.9 1015.7 0.0
18/01:00pm 18.4 13.5 12.6 69 3.3 S 30 44 16 24 1016.2 1016.0 0.0
18/12:30pm 18.1 12.9 12.8 71 3.0 S 32 48 17 26 1016.3 1016.1 0.0
18/12:00pm 18.6 13.6 13.5 72 2.9 S 32 48 17 26 1016.4 1016.2 0.0
18/11:30am 19.0 15.1 14.3 74 2.7 S 28 39 15 21 1017.0 1016.8 0.0
18/11:00am 17.9 12.9 13.4 75 2.6 S 32 46 17 25 1017.1 1016.9 0.0
18/10:30am 18.2 14.2 14.1 77 2.4 S 28 44 15 24 1017.2 1017.0 0.0
18/10:17am 17.7 12.7 13.4 76 2.4 S 32 52 17 28 1017.3 1017.1 0.0
18/10:00am 18.5 13.0 13.6 73 2.8 S 35 46 19 25 1017.3 1017.1 0.0
18/09:38am 18.5 14.5 14.0 75 2.6 S 28 46 15 25 1017.5 1017.3 0.0
18/09:30am 18.2 14.1 13.7 75 2.6 S 28 41 15 22 1017.6 1017.4 0.0
18/09:00am 18.2 13.2 13.5 74 2.7 S 32 46 17 25 1017.4 1017.2 0.0
18/08:30am 17.8 14.1 13.9 78 2.2 SSW 26 41 14 22 1017.4 1017.2 0.0
18/08:00am 17.4 14.1 13.9 80 2.0 SSW 24 41 13 22 1017.1 1016.9 1.4
18/07:30am 17.3 12.9 14.0 81 1.9 SSW 30 43 16 23 1017.1 1016.9 1.4
18/07:07am 16.7 12.8 14.5 87 1.3 SSW 28 46 15 25 1016.9 1016.7 1.4
18/07:00am 16.7 12.4 14.3 86 1.4 SSW 30 43 16 23 1016.9 1016.7 1.4
18/06:30am 16.2 11.9 14.4 89 1.0 SSW 30 46 16 25 1016.6 1016.4 1.4
18/06:00am 16.9 12.0 14.2 84 1.5 SSW 33 50 18 27 1016.2 1016.0 1.4
18/05:46am 16.9 12.0 14.2 84 1.5 SSW 33 54 18 29 1015.8 1015.6 1.4
18/05:43am 16.9 12.0 14.4 85 1.4 SSW 33 48 18 26 1015.8 1015.6 1.4
18/05:30am 16.8 11.8 13.9 83 1.7 SSW 33 50 18 27 1015.6 1015.4 1.4
18/05:02am 16.3 12.0 14.5 89 1.0 SSW 30 48 16 26 1015.3 1015.1 1.4
18/05:01am 16.4 12.1 14.4 88 1.1 SSW 30 48 16 26 1015.3 1015.1 1.4
18/05:00am 16.4 11.7 14.4 88 1.1 SSW 32 48 17 26 1015.3 1015.1 1.4
18/04:30am 16.7 11.9 14.0 84 1.5 SSW 32 50 17 27 1014.9 1014.7 1.4
18/04:09am 16.9 12.0 14.4 85 1.4 SSW 33 54 18 29 1014.6 1014.4 1.4
18/04:00am 16.8 12.1 14.3 85 1.4 SSW 32 44 17 24 1014.6 1014.4 1.4
18/03:30am 17.0 13.0 14.1 83 1.7 SSW 28 39 15 21 1014.3 1014.1 1.4
18/03:00am 16.8 12.1 13.1 79 2.1 SSW 30 44 16 24 1014.1 1013.9 1.4
18/02:30am 17.0 13.6 13.7 81 1.9 SSW 24 33 13 18 1013.8 1013.6 1.4
18/02:08am 16.9 12.5 14.2 84 1.5 SSW 30 48 16 26 1013.9 1013.7 1.4
18/02:00am 17.0 12.7 14.3 84 1.6 SSW 30 44 16 24 1013.7 1013.5 1.4
18/01:30am 17.1 14.2 14.0 82 1.8 SSW 22 35 12 19 1013.7 1013.5 1.4
18/01:12am 17.0 13.0 14.1 83 1.7 SSW 28 50 15 27 1013.8 1013.6 1.4
18/01:00am 16.9 13.0 14.4 85 1.4 SSW 28 37 15 20 1013.8 1013.6 1.4
18/12:30am 16.8 12.4 14.1 84 1.5 SSW 30 43 16 23 1013.9 1013.7 1.4
18/12:00am 16.9 12.8 13.8 82 1.8 SSW 28 41 15 22 1014.1 1013.9 1.4
 
Date/Time
EST
Temp
°C
App
Temp
°C
Dew
Point
°C
Rel
Hum
%
Delta-T
°C
Wind Press
QNH
hPa
Press
MSL
hPa
Rain since
9am
mm
Dir  Spd
km/h
Gust
km/h
Spd
kts
Gust
kts
17/11:30pm 16.7 12.3 14.2 85 1.4 SSW 30 37 16 20 1014.1 1013.9 1.4
17/11:00pm 16.7 13.6 13.4 81 1.9 SSW 22 30 12 16 1014.3 1014.1 1.4
17/10:30pm 16.7 13.7 13.8 83 1.6 S 22 33 12 18 1014.4 1014.2 1.4
17/10:02pm 16.7 13.8 14.0 84 1.5 S 22 35 12 19 1014.4 1014.2 1.4
17/10:00pm 16.7 13.4 14.0 84 1.5 S 24 35 13 19 1014.4 1014.2 1.4
17/09:45pm 16.7 14.3 14.5 87 1.3 S 20 37 11 20 1014.4 1014.2 1.4
17/09:30pm 16.6 14.3 14.6 88 1.2 S 20 28 11 15 1014.3 1014.1 1.4
17/09:00pm 16.5 13.3 14.3 87 1.3 S 24 33 13 18 1014.3 1014.1 1.4
17/08:30pm 16.6 14.4 15.0 90 0.9 S 20 32 11 17 1014.3 1014.1 1.4
17/08:00pm 16.6 15.0 15.1 91 0.9 S 17 22 9 12 1014.3 1014.1 1.4
17/07:30pm 16.5 14.4 15.2 92 0.8 S 20 28 11 15 1014.3 1014.1 1.4
17/07:27pm 16.5 14.4 15.2 92 0.8 S 20 28 11 15 1014.3 1014.1 1.4
17/07:00pm 16.3 14.8 15.3 94 0.6 S 17 26 9 14 1014.1 1013.9 1.4
17/06:30pm 16.3 14.4 15.8 97 0.3 S 20 28 11 15 1013.9 1013.7 1.4
17/06:11pm 16.2 14.9 15.9 98 0.2 SSE 17 22 9 12 1013.7 1013.5 1.4
17/06:00pm 16.0 14.7 15.7 98 0.2 SSE 17 20 9 11 1013.4 1013.3 1.2
17/05:45pm 15.9 14.2 15.7 99 0.1 SSE 19 26 10 14 1013.3 1013.2 1.2
17/05:31pm 15.8 14.4 15.6 99 0.1 SE 17 26 9 14 1013.0 1012.8 1.2
17/05:30pm 15.8 14.4 15.6 99 0.1 SE 17 26 9 14 1013.0 1012.8 1.2
17/05:00pm 15.8 14.4 15.6 99 0.1 SE 17 24 9 13 1013.0 1012.8 1.0
17/04:45pm 15.7 13.7 15.4 98 0.2 SSE 20 28 11 15 1013.0 1012.8 0.8
17/04:30pm 15.9 14.1 15.4 97 0.3 SSE 19 26 10 14 1012.9 1012.7 0.8
17/04:00pm 16.3 14.0 15.8 97 0.3 SSE 22 30 12 16 1012.7 1012.5 0.8
17/03:30pm 16.5 14.7 15.9 96 0.4 SSE 20 33 11 18 1012.3 1012.1 0.8
17/03:19pm 16.6 14.1 16.1 97 0.3 S 24 33 13 18 1012.2 1012.0 0.8
17/03:00pm 16.5 13.6 16.0 97 0.3 S 26 37 14 20 1012.1 1011.9 0.6
17/02:46pm 17.1 15.3 16.0 93 0.7 SW 20 39 11 21 1011.9 1011.7 0.4
17/02:45pm 17.1 15.4 15.8 92 0.8 SW 19 39 10 21 1011.9 1011.7 0.4
17/02:30pm 19.7 20.2 18.4 92 0.8 SSW 13 13 7 7 1011.6 1011.4 0.4
17/02:11pm 20.2 21.5 18.5 90 1.1 S 9 15 5 8 1011.5 1011.3 0.4
17/02:09pm 20.4 22.2 18.7 90 1.1 S 7 15 4 8 1011.5 1011.3 0.4
17/02:00pm 20.4 22.9 18.2 87 1.4 E 2 9 1 5 1011.5 1011.3 0.4
17/01:54pm 20.6 23.6 18.5 88 1.3 CALM 0 0 0 0 1011.6 1011.4 0.4
17/01:47pm 20.7 23.9 18.8 89 1.2 CALM 0 0 0 0 1011.6 1011.4 0.4
17/01:46pm 20.8 24.1 19.1 90 1.1 CALM 0 0 0 0 1011.6 1011.4 0.4
17/01:30pm 19.5 20.5 17.8 90 1.0 NNE 9 13 5 7 1011.8 1011.6 0.4
17/01:26pm 19.3 20.1 17.4 89 1.2 NNE 9 13 5 7 1011.8 1011.6 0.0
17/01:20pm 19.4 20.2 17.4 88 1.2 NE 9 13 5 7 1011.9 1011.7 0.0
17/01:12pm 19.7 19.9 17.7 88 1.2 NE 13 15 7 8 1011.9 1011.7 0.0
17/01:00pm 19.7 20.0 17.8 89 1.2 NE 13 19 7 10 1012.0 1011.8 0.0
17/12:30pm 19.4 18.9 17.9 91 0.9 ENE 17 22 9 12 1012.2 1012.0 0.0
17/12:00pm 20.4 20.1 18.3 88 1.3 NE 17 26 9 14 1012.5 1012.3 0.0
17/11:41am 20.0 19.9 18.8 93 0.8 NE 17 26 9 14 1012.7 1012.5 0.0
17/11:30am 19.3 20.3 18.6 96 0.4 NE 11 19 6 10 1013.0 1012.8 0.0
17/11:21am 19.0 19.4 18.2 95 0.5 NE 13 20 7 11 1013.2 1013.1 0.0
17/11:12am 19.4 20.0 18.7 96 0.4 NNE 13 20 7 11 1013.3 1013.2 0.0
17/11:00am 19.0 19.5 18.3 96 0.4 NE 13 19 7 10 1013.5 1013.4 0.0
17/10:30am 18.8 19.5 18.0 95 0.5 NNE 11 17 6 9 1013.9 1013.7 0.0
17/10:26am 18.9 18.9 18.1 95 0.5 ENE 15 22 8 12 1014.0 1013.8 0.0
17/10:00am 19.3 18.9 18.1 93 0.7 NE 17 22 9 12 1014.2 1014.0 0.0
17/09:30am 19.2 18.4 17.9 92 0.8 NE 19 28 10 15 1014.3 1014.1 0.0
17/09:00am 19.9 19.2 18.2 90 1.1 NE 19 26 10 14 1014.4 1014.2 0.0
17/08:30am 19.6 18.3 18.1 91 0.9 NE 22 32 12 17 1014.5 1014.3 0.0
17/08:00am 19.2 18.4 18.4 95 0.5 ENE 20 33 11 18 1014.9 1014.7 0.0
17/07:53am 18.8 18.4 18.0 95 0.5 NE 17 24 9 13 1015.0 1014.8 0.0
17/07:30am 19.0 18.2 18.0 94 0.6 NE 19 30 10 16 1015.1 1014.9 0.0
17/07:08am 19.1 17.3 17.9 93 0.7 NE 24 32 13 17 1014.9 1014.7 0.0
17/07:00am 19.1 17.4 18.1 94 0.6 ENE 24 32 13 17 1014.8 1014.6 0.0
17/06:30am 18.8 18.2 18.5 98 0.2 ENE 19 28 10 15 1014.9 1014.7 0.0
17/06:02am 18.4 17.6 18.1 98 0.2 ENE 19 26 10 14 1014.8 1014.6 0.0
17/06:00am 18.4 17.6 18.1 98 0.2 ENE 19 26 10 14 1014.8 1014.6 0.0
17/05:45am 18.3 17.3 18.0 98 0.2 NE 20 28 11 15 1014.5 1014.3 0.0
17/05:30am 18.3 17.5 18.0 98 0.2 NE 19 26 10 14 1014.3 1014.1 0.0
17/05:00am 18.1 16.9 17.6 97 0.3 NE 20 26 11 14 1014.3 1014.1 0.0
17/04:30am 18.2 17.7 17.7 97 0.3 NE 17 24 9 13 1014.3 1014.1 0.0
17/04:00am 18.2 17.3 17.7 97 0.3 NE 19 26 10 14 1014.3 1014.1 0.0
17/03:30am 18.1 17.5 17.5 96 0.4 NE 17 24 9 13 1014.2 1014.0 0.0
17/03:00am 18.1 17.4 17.3 95 0.5 NE 17 28 9 15 1014.2 1014.0 0.0
17/02:30am 18.1 17.9 17.5 96 0.4 NE 15 24 8 13 1014.0 1013.8 0.0
17/02:00am 18.1 15.7 17.3 95 0.5 NE 26 35 14 19 1013.8 1013.6 0.0
17/01:30am 18.1 16.8 17.3 95 0.5 NE 20 30 11 16 1014.0 1013.8 0.0
17/01:00am 18.1 16.9 17.5 96 0.4 NE 20 32 11 17 1014.0 1013.8 0.0
17/12:30am 18.1 15.8 17.5 96 0.4 ENE 26 35 14 19 1014.2 1014.0 0.0
17/12:00am 18.0 15.6 17.4 96 0.4 ENE 26 33 14 18 1014.7 1014.5 0.0
 
Date/Time
EST
Temp
°C
App
Temp
°C
Dew
Point
°C
Rel
Hum
%
Delta-T
°C
Wind Press
QNH
hPa
Press
MSL
hPa
Rain since
9am
mm
Dir  Spd
km/h
Gust
km/h
Spd
kts
Gust
kts
16/11:30pm 17.9 15.5 17.3 96 0.4 ENE 26 37 14 20 1014.9 1014.7 0.0
16/11:00pm 17.8 15.3 17.2 96 0.4 ENE 26 33 14 18 1015.2 1015.0 0.0
16/10:30pm 17.9 16.2 17.1 95 0.5 NE 22 33 12 18 1015.5 1015.3 0.0
16/10:00pm 18.0 15.5 17.2 95 0.5 ENE 26 33 14 18 1015.6 1015.4 0.0
16/09:30pm 18.0 15.5 17.0 94 0.6 ENE 26 37 14 20 1016.0 1015.8 0.0
16/09:00pm 18.0 15.5 17.0 94 0.6 ENE 26 35 14 19 1016.3 1016.1 0.0
16/08:30pm 18.0 15.4 16.9 93 0.7 ENE 26 35 14 19 1016.6 1016.4 0.0
16/08:00pm 18.0 15.4 16.9 93 0.7 ENE 26 35 14 19 1016.8 1016.6 0.0
16/07:30pm 18.0 15.4 16.9 93 0.7 ENE 26 32 14 17 1017.0 1016.8 0.0
16/07:00pm 17.9 15.7 16.8 93 0.7 ENE 24 32 13 17 1016.8 1016.6 0.0
16/06:30pm 18.1 15.5 16.8 92 0.8 ENE 26 37 14 20 1016.6 1016.4 0.0
16/06:00pm 18.0 16.1 16.7 92 0.8 ENE 22 33 12 18 1016.2 1016.0 0.0
16/05:30pm 18.0 15.6 16.5 91 0.9 ENE 24 33 13 18 1015.9 1015.7 0.0

Other Formats:

Comma delimited format used in spreadsheet applications
http://www.bom.gov.au/fwo/IDN60801/IDN60801.94996.axf

JavaScript Object Notation format (JSON) in row-major order
http://www.bom.gov.au/fwo/IDN60801/IDN60801.94996.json